sensor_id;sensor_type;location;lat;lon;timestamp;P1;durP1;ratioP1;P2;durP2;ratioP2
76320;SDS011;65132;52.088;5.402;2023-04-25T00:00:13;5.55;;;1.13;;
76320;SDS011;65132;52.088;5.402;2023-04-25T00:02:40;5.25;;;0.98;;
76320;SDS011;65132;52.088;5.402;2023-04-25T00:07:38;7.10;;;0.82;;
76320;SDS011;65132;52.088;5.402;2023-04-25T00:10:04;5.93;;;1.27;;
76320;SDS011;65132;52.088;5.402;2023-04-25T00:12:33;7.18;;;1.27;;
76320;SDS011;65132;52.088;5.402;2023-04-25T00:15:03;8.35;;;1.13;;
76320;SDS011;65132;52.088;5.402;2023-04-25T00:17:29;7.95;;;1.77;;
76320;SDS011;65132;52.088;5.402;2023-04-25T00:22:26;8.55;;;1.77;;
76320;SDS011;65132;52.088;5.402;2023-04-25T00:24:53;9.50;;;1.13;;
76320;SDS011;65132;52.088;5.402;2023-04-25T00:27:22;9.63;;;1.52;;
76320;SDS011;65132;52.088;5.402;2023-04-25T00:29:48;6.57;;;1.60;;
76320;SDS011;65132;52.088;5.402;2023-04-25T00:32:14;5.93;;;1.27;;
76320;SDS011;65132;52.088;5.402;2023-04-25T00:34:41;9.02;;;1.48;;
76320;SDS011;65132;52.088;5.402;2023-04-25T00:37:08;7.20;;;1.25;;
76320;SDS011;65132;52.088;5.402;2023-04-25T00:39:34;7.78;;;1.58;;
76320;SDS011;65132;52.088;5.402;2023-04-25T00:42:00;11.15;;;2.08;;
76320;SDS011;65132;52.088;5.402;2023-04-25T00:44:29;10.77;;;1.50;;
76320;SDS011;65132;52.088;5.402;2023-04-25T00:46:55;11.68;;;1.48;;
76320;SDS011;65132;52.088;5.402;2023-04-25T00:49:21;5.82;;;1.50;;
76320;SDS011;65132;52.088;5.402;2023-04-25T00:51:50;9.13;;;1.45;;
76320;SDS011;65132;52.088;5.402;2023-04-25T00:54:17;6.97;;;1.60;;
76320;SDS011;65132;52.088;5.402;2023-04-25T00:56:46;6.75;;;1.40;;
76320;SDS011;65132;52.088;5.402;2023-04-25T00:59:12;4.93;;;1.10;;
76320;SDS011;65132;52.088;5.402;2023-04-25T01:01:41;9.25;;;1.20;;
76320;SDS011;65132;52.088;5.402;2023-04-25T01:04:09;6.38;;;1.48;;
76320;SDS011;65132;52.088;5.402;2023-04-25T01:06:36;8.70;;;1.35;;
76320;SDS011;65132;52.088;5.402;2023-04-25T01:09:05;7.55;;;1.75;;
76320;SDS011;65132;52.088;5.402;2023-04-25T01:11:31;11.60;;;1.42;;
76320;SDS011;65132;52.088;5.402;2023-04-25T01:13:57;8.38;;;1.48;;
76320;SDS011;65132;52.088;5.402;2023-04-25T01:16:23;5.45;;;1.17;;
76320;SDS011;65132;52.088;5.402;2023-04-25T01:18:50;6.18;;;1.38;;
76320;SDS011;65132;52.088;5.402;2023-04-25T01:21:17;8.18;;;1.33;;
76320;SDS011;65132;52.088;5.402;2023-04-25T01:23:43;8.13;;;1.25;;
76320;SDS011;65132;52.088;5.402;2023-04-25T01:26:12;5.15;;;0.95;;
76320;SDS011;65132;52.088;5.402;2023-04-25T01:28:39;7.15;;;1.20;;
76320;SDS011;65132;52.088;5.402;2023-04-25T01:31:08;5.25;;;1.15;;
76320;SDS011;65132;52.088;5.402;2023-04-25T01:33:34;5.88;;;2.17;;
76320;SDS011;65132;52.088;5.402;2023-04-25T01:36:04;5.63;;;1.52;;
76320;SDS011;65132;52.088;5.402;2023-04-25T01:38:32;5.80;;;1.70;;
76320;SDS011;65132;52.088;5.402;2023-04-25T01:40:58;4.72;;;1.38;;
76320;SDS011;65132;52.088;5.402;2023-04-25T01:43:25;5.53;;;1.20;;
76320;SDS011;65132;52.088;5.402;2023-04-25T01:45:51;6.47;;;1.55;;
76320;SDS011;65132;52.088;5.402;2023-04-25T01:48:17;3.63;;;1.00;;
76320;SDS011;65132;52.088;5.402;2023-04-25T01:50:44;6.45;;;1.70;;
76320;SDS011;65132;52.088;5.402;2023-04-25T01:53:10;8.60;;;1.25;;
76320;SDS011;65132;52.088;5.402;2023-04-25T01:55:38;7.78;;;1.20;;
76320;SDS011;65132;52.088;5.402;2023-04-25T01:58:07;6.43;;;1.40;;
76320;SDS011;65132;52.088;5.402;2023-04-25T02:00:34;6.57;;;1.23;;
76320;SDS011;65132;52.088;5.402;2023-04-25T02:03:00;5.47;;;0.90;;
76320;SDS011;65132;52.088;5.402;2023-04-25T02:05:26;7.43;;;1.45;;
76320;SDS011;65132;52.088;5.402;2023-04-25T02:07:53;6.07;;;0.98;;
76320;SDS011;65132;52.088;5.402;2023-04-25T02:10:19;7.78;;;1.23;;
76320;SDS011;65132;52.088;5.402;2023-04-25T02:12:46;5.47;;;1.25;;
76320;SDS011;65132;52.088;5.402;2023-04-25T02:15:14;6.35;;;1.65;;
76320;SDS011;65132;52.088;5.402;2023-04-25T02:17:40;7.70;;;1.25;;
76320;SDS011;65132;52.088;5.402;2023-04-25T02:20:07;5.80;;;1.10;;
76320;SDS011;65132;52.088;5.402;2023-04-25T02:22:36;7.18;;;1.10;;
76320;SDS011;65132;52.088;5.402;2023-04-25T02:25:02;8.32;;;1.60;;
76320;SDS011;65132;52.088;5.402;2023-04-25T02:27:28;4.47;;;1.33;;
76320;SDS011;65132;52.088;5.402;2023-04-25T02:30:02;7.65;;;1.50;;
76320;SDS011;65132;52.088;5.402;2023-04-25T02:32:29;9.07;;;1.73;;
76320;SDS011;65132;52.088;5.402;2023-04-25T02:34:55;4.82;;;1.08;;
76320;SDS011;65132;52.088;5.402;2023-04-25T02:37:21;6.32;;;1.38;;
76320;SDS011;65132;52.088;5.402;2023-04-25T02:39:47;5.00;;;1.30;;
76320;SDS011;65132;52.088;5.402;2023-04-25T02:42:14;7.25;;;1.35;;
76320;SDS011;65132;52.088;5.402;2023-04-25T02:44:40;7.00;;;1.40;;
76320;SDS011;65132;52.088;5.402;2023-04-25T02:47:06;8.38;;;1.38;;
76320;SDS011;65132;52.088;5.402;2023-04-25T02:49:36;5.72;;;1.17;;
76320;SDS011;65132;52.088;5.402;2023-04-25T02:52:05;3.33;;;1.17;;
76320;SDS011;65132;52.088;5.402;2023-04-25T02:54:31;6.40;;;1.30;;
76320;SDS011;65132;52.088;5.402;2023-04-25T02:56:57;6.25;;;1.52;;
76320;SDS011;65132;52.088;5.402;2023-04-25T02:59:25;4.60;;;1.15;;
76320;SDS011;65132;52.088;5.402;2023-04-25T03:01:52;7.57;;;1.67;;
76320;SDS011;65132;52.088;5.402;2023-04-25T03:04:18;8.15;;;1.50;;
76320;SDS011;65132;52.088;5.402;2023-04-25T03:06:44;4.45;;;0.88;;
76320;SDS011;65132;52.088;5.402;2023-04-25T03:09:10;7.25;;;1.70;;
76320;SDS011;65132;52.088;5.402;2023-04-25T03:11:47;7.32;;;1.70;;
76320;SDS011;65132;52.088;5.402;2023-04-25T03:14:14;7.93;;;1.27;;
76320;SDS011;65132;52.088;5.402;2023-04-25T03:16:41;13.15;;;1.92;;
76320;SDS011;65132;52.088;5.402;2023-04-25T03:19:07;5.53;;;1.25;;
76320;SDS011;65132;52.088;5.402;2023-04-25T03:21:36;6.53;;;1.50;;
76320;SDS011;65132;52.088;5.402;2023-04-25T03:24:02;9.98;;;2.00;;
76320;SDS011;65132;52.088;5.402;2023-04-25T03:26:32;8.23;;;1.15;;
76320;SDS011;65132;52.088;5.402;2023-04-25T03:28:59;5.70;;;1.25;;
76320;SDS011;65132;52.088;5.402;2023-04-25T03:31:25;9.18;;;1.30;;
76320;SDS011;65132;52.088;5.402;2023-04-25T03:33:52;6.13;;;1.42;;
76320;SDS011;65132;52.088;5.402;2023-04-25T03:36:18;7.80;;;1.45;;
76320;SDS011;65132;52.088;5.402;2023-04-25T03:38:44;12.10;;;1.80;;
76320;SDS011;65132;52.088;5.402;2023-04-25T03:41:12;8.00;;;1.13;;
76320;SDS011;65132;52.088;5.402;2023-04-25T03:43:38;6.18;;;1.23;;
76320;SDS011;65132;52.088;5.402;2023-04-25T03:46:04;3.95;;;1.30;;
76320;SDS011;65132;52.088;5.402;2023-04-25T03:48:32;8.85;;;1.67;;
76320;SDS011;65132;52.088;5.402;2023-04-25T03:51:01;6.70;;;1.48;;
76320;SDS011;65132;52.088;5.402;2023-04-25T03:53:27;7.93;;;1.35;;
76320;SDS011;65132;52.088;5.402;2023-04-25T03:55:56;7.18;;;1.20;;
76320;SDS011;65132;52.088;5.402;2023-04-25T03:58:22;9.15;;;1.50;;
76320;SDS011;65132;52.088;5.402;2023-04-25T04:00:49;3.67;;;0.95;;
76320;SDS011;65132;52.088;5.402;2023-04-25T04:03:16;5.05;;;1.33;;
76320;SDS011;65132;52.088;5.402;2023-04-25T04:05:45;8.15;;;1.23;;
76320;SDS011;65132;52.088;5.402;2023-04-25T04:08:12;6.88;;;1.35;;
76320;SDS011;65132;52.088;5.402;2023-04-25T04:10:40;4.28;;;1.20;;
76320;SDS011;65132;52.088;5.402;2023-04-25T04:13:12;6.68;;;1.33;;
76320;SDS011;65132;52.088;5.402;2023-04-25T04:15:38;5.55;;;1.40;;
76320;SDS011;65132;52.088;5.402;2023-04-25T04:18:04;3.95;;;1.50;;
76320;SDS011;65132;52.088;5.402;2023-04-25T04:20:33;6.38;;;1.45;;
76320;SDS011;65132;52.088;5.402;2023-04-25T04:22:59;4.20;;;1.02;;
76320;SDS011;65132;52.088;5.402;2023-04-25T04:25:26;5.35;;;0.80;;
76320;SDS011;65132;52.088;5.402;2023-04-25T04:27:56;5.82;;;1.20;;
76320;SDS011;65132;52.088;5.402;2023-04-25T04:30:23;5.55;;;1.23;;
76320;SDS011;65132;52.088;5.402;2023-04-25T04:32:52;10.55;;;1.13;;
76320;SDS011;65132;52.088;5.402;2023-04-25T04:35:19;4.45;;;0.90;;
76320;SDS011;65132;52.088;5.402;2023-04-25T04:37:45;3.97;;;0.95;;
76320;SDS011;65132;52.088;5.402;2023-04-25T04:40:13;5.50;;;0.80;;
76320;SDS011;65132;52.088;5.402;2023-04-25T04:42:39;7.13;;;1.20;;
76320;SDS011;65132;52.088;5.402;2023-04-25T04:45:06;9.20;;;1.23;;
76320;SDS011;65132;52.088;5.402;2023-04-25T04:47:35;4.63;;;1.00;;
76320;SDS011;65132;52.088;5.402;2023-04-25T04:50:10;6.20;;;0.77;;
76320;SDS011;65132;52.088;5.402;2023-04-25T04:52:38;5.63;;;1.00;;
76320;SDS011;65132;52.088;5.402;2023-04-25T04:55:07;3.58;;;0.90;;
76320;SDS011;65132;52.088;5.402;2023-04-25T04:57:36;3.60;;;1.00;;
76320;SDS011;65132;52.088;5.402;2023-04-25T05:00:10;6.65;;;0.85;;
76320;SDS011;65132;52.088;5.402;2023-04-25T05:02:37;6.43;;;1.13;;
76320;SDS011;65132;52.088;5.402;2023-04-25T05:05:08;9.75;;;1.35;;
76320;SDS011;65132;52.088;5.402;2023-04-25T05:07:34;5.15;;;0.82;;
76320;SDS011;65132;52.088;5.402;2023-04-25T05:10:00;5.03;;;1.38;;
76320;SDS011;65132;52.088;5.402;2023-04-25T05:12:27;7.40;;;1.00;;
76320;SDS011;65132;52.088;5.402;2023-04-25T05:14:53;6.18;;;0.93;;
76320;SDS011;65132;52.088;5.402;2023-04-25T05:17:19;6.82;;;1.00;;
76320;SDS011;65132;52.088;5.402;2023-04-25T05:19:48;3.92;;;0.75;;
76320;SDS011;65132;52.088;5.402;2023-04-25T05:22:16;6.80;;;1.20;;
76320;SDS011;65132;52.088;5.402;2023-04-25T05:24:44;5.28;;;1.05;;
76320;SDS011;65132;52.088;5.402;2023-04-25T05:27:10;3.70;;;0.50;;
76320;SDS011;65132;52.088;5.402;2023-04-25T05:29:43;4.28;;;1.20;;
76320;SDS011;65132;52.088;5.402;2023-04-25T05:32:10;1.92;;;0.43;;
76320;SDS011;65132;52.088;5.402;2023-04-25T05:34:36;4.32;;;0.63;;
76320;SDS011;65132;52.088;5.402;2023-04-25T05:37:03;2.58;;;0.77;;
76320;SDS011;65132;52.088;5.402;2023-04-25T05:39:29;4.80;;;0.85;;
76320;SDS011;65132;52.088;5.402;2023-04-25T05:41:57;4.15;;;1.30;;
76320;SDS011;65132;52.088;5.402;2023-04-25T05:44:24;5.00;;;0.80;;
76320;SDS011;65132;52.088;5.402;2023-04-25T05:46:50;5.82;;;1.15;;
76320;SDS011;65132;52.088;5.402;2023-04-25T05:49:19;5.25;;;0.80;;
76320;SDS011;65132;52.088;5.402;2023-04-25T05:51:45;4.28;;;1.13;;
76320;SDS011;65132;52.088;5.402;2023-04-25T05:54:13;2.53;;;0.75;;
76320;SDS011;65132;52.088;5.402;2023-04-25T05:56:39;3.15;;;0.70;;
76320;SDS011;65132;52.088;5.402;2023-04-25T05:59:05;5.57;;;0.77;;
76320;SDS011;65132;52.088;5.402;2023-04-25T06:01:31;3.75;;;1.10;;
76320;SDS011;65132;52.088;5.402;2023-04-25T06:03:57;5.05;;;1.00;;
76320;SDS011;65132;52.088;5.402;2023-04-25T06:06:26;4.85;;;0.80;;
76320;SDS011;65132;52.088;5.402;2023-04-25T06:08:54;3.47;;;0.90;;
76320;SDS011;65132;52.088;5.402;2023-04-25T06:11:20;5.45;;;1.08;;
76320;SDS011;65132;52.088;5.402;2023-04-25T06:13:46;4.18;;;1.10;;
76320;SDS011;65132;52.088;5.402;2023-04-25T06:16:13;2.20;;;0.63;;
76320;SDS011;65132;52.088;5.402;2023-04-25T06:18:39;3.22;;;0.47;;
76320;SDS011;65132;52.088;5.402;2023-04-25T06:21:06;3.25;;;0.85;;
76320;SDS011;65132;52.088;5.402;2023-04-25T06:23:32;7.72;;;0.82;;
76320;SDS011;65132;52.088;5.402;2023-04-25T06:25:59;7.13;;;0.80;;
76320;SDS011;65132;52.088;5.402;2023-04-25T06:28:25;4.47;;;0.90;;
76320;SDS011;65132;52.088;5.402;2023-04-25T06:30:52;2.72;;;0.70;;
76320;SDS011;65132;52.088;5.402;2023-04-25T06:33:19;6.00;;;1.27;;
76320;SDS011;65132;52.088;5.402;2023-04-25T06:35:45;7.57;;;1.05;;
76320;SDS011;65132;52.088;5.402;2023-04-25T06:38:11;3.20;;;0.85;;
76320;SDS011;65132;52.088;5.402;2023-04-25T06:40:40;3.42;;;0.90;;
76320;SDS011;65132;52.088;5.402;2023-04-25T06:43:06;7.43;;;0.73;;
76320;SDS011;65132;52.088;5.402;2023-04-25T06:45:35;4.13;;;0.98;;
76320;SDS011;65132;52.088;5.402;2023-04-25T06:48:06;4.13;;;0.32;;
76320;SDS011;65132;52.088;5.402;2023-04-25T06:50:33;7.13;;;0.88;;
76320;SDS011;65132;52.088;5.402;2023-04-25T06:53:00;3.22;;;0.50;;
76320;SDS011;65132;52.088;5.402;2023-04-25T06:55:28;2.90;;;0.70;;
76320;SDS011;65132;52.088;5.402;2023-04-25T06:57:54;3.60;;;0.50;;
76320;SDS011;65132;52.088;5.402;2023-04-25T07:00:20;2.83;;;0.80;;
76320;SDS011;65132;52.088;5.402;2023-04-25T07:02:46;4.75;;;0.90;;
76320;SDS011;65132;52.088;5.402;2023-04-25T07:05:18;4.63;;;0.60;;
76320;SDS011;65132;52.088;5.402;2023-04-25T07:07:44;4.88;;;0.55;;
76320;SDS011;65132;52.088;5.402;2023-04-25T07:10:11;4.35;;;0.68;;
76320;SDS011;65132;52.088;5.402;2023-04-25T07:12:37;6.63;;;0.60;;
76320;SDS011;65132;52.088;5.402;2023-04-25T07:15:04;5.00;;;0.75;;
76320;SDS011;65132;52.088;5.402;2023-04-25T07:17:30;7.40;;;0.90;;
76320;SDS011;65132;52.088;5.402;2023-04-25T07:19:59;1.73;;;0.40;;
76320;SDS011;65132;52.088;5.402;2023-04-25T07:22:27;6.90;;;1.00;;
76320;SDS011;65132;52.088;5.402;2023-04-25T07:24:53;5.38;;;0.80;;
76320;SDS011;65132;52.088;5.402;2023-04-25T07:27:21;4.05;;;0.50;;
76320;SDS011;65132;52.088;5.402;2023-04-25T07:29:47;5.13;;;0.70;;
76320;SDS011;65132;52.088;5.402;2023-04-25T07:32:16;4.25;;;0.52;;
76320;SDS011;65132;52.088;5.402;2023-04-25T07:34:43;2.90;;;0.30;;
76320;SDS011;65132;52.088;5.402;2023-04-25T07:37:09;4.82;;;0.63;;
76320;SDS011;65132;52.088;5.402;2023-04-25T07:39:39;5.13;;;0.38;;
76320;SDS011;65132;52.088;5.402;2023-04-25T07:42:08;5.18;;;0.60;;
76320;SDS011;65132;52.088;5.402;2023-04-25T07:44:38;5.07;;;1.10;;
76320;SDS011;65132;52.088;5.402;2023-04-25T07:47:07;7.63;;;0.70;;
76320;SDS011;65132;52.088;5.402;2023-04-25T07:49:34;6.60;;;0.52;;
76320;SDS011;65132;52.088;5.402;2023-04-25T07:52:02;6.60;;;0.50;;
76320;SDS011;65132;52.088;5.402;2023-04-25T07:54:28;5.97;;;0.73;;
76320;SDS011;65132;52.088;5.402;2023-04-25T07:56:59;1.88;;;0.35;;
76320;SDS011;65132;52.088;5.402;2023-04-25T07:59:26;4.50;;;0.77;;
76320;SDS011;65132;52.088;5.402;2023-04-25T08:01:55;4.65;;;0.75;;
76320;SDS011;65132;52.088;5.402;2023-04-25T08:04:21;2.35;;;0.50;;
76320;SDS011;65132;52.088;5.402;2023-04-25T08:06:47;6.65;;;0.77;;
76320;SDS011;65132;52.088;5.402;2023-04-25T08:09:14;3.97;;;0.50;;
76320;SDS011;65132;52.088;5.402;2023-04-25T08:11:40;5.70;;;0.40;;
76320;SDS011;65132;52.088;5.402;2023-04-25T08:14:06;4.03;;;0.47;;
76320;SDS011;65132;52.088;5.402;2023-04-25T08:16:37;2.60;;;0.32;;
76320;SDS011;65132;52.088;5.402;2023-04-25T08:19:06;3.95;;;0.68;;
76320;SDS011;65132;52.088;5.402;2023-04-25T08:21:38;2.88;;;0.80;;
76320;SDS011;65132;52.088;5.402;2023-04-25T08:24:04;2.70;;;0.40;;
76320;SDS011;65132;52.088;5.402;2023-04-25T08:26:39;4.38;;;0.93;;
76320;SDS011;65132;52.088;5.402;2023-04-25T08:29:05;2.38;;;0.80;;
76320;SDS011;65132;52.088;5.402;2023-04-25T08:31:31;2.72;;;0.55;;
76320;SDS011;65132;52.088;5.402;2023-04-25T08:33:58;4.95;;;0.47;;
76320;SDS011;65132;52.088;5.402;2023-04-25T08:36:24;3.05;;;0.60;;
76320;SDS011;65132;52.088;5.402;2023-04-25T08:39:05;5.80;;;0.40;;
76320;SDS011;65132;52.088;5.402;2023-04-25T08:41:31;2.38;;;0.20;;
76320;SDS011;65132;52.088;5.402;2023-04-25T08:49:21;3.88;;;0.57;;
76320;SDS011;65132;52.088;5.402;2023-04-25T08:51:49;1.58;;;0.60;;
76320;SDS011;65132;52.088;5.402;2023-04-25T08:56:57;4.10;;;0.80;;
76320;SDS011;65132;52.088;5.402;2023-04-25T08:59:23;5.45;;;0.30;;
76320;SDS011;65132;52.088;5.402;2023-04-25T09:01:50;1.73;;;0.30;;
76320;SDS011;65132;52.088;5.402;2023-04-25T09:04:19;2.60;;;0.22;;
76320;SDS011;65132;52.088;5.402;2023-04-25T09:06:47;3.60;;;0.28;;
76320;SDS011;65132;52.088;5.402;2023-04-25T09:09:13;3.40;;;0.20;;
76320;SDS011;65132;52.088;5.402;2023-04-25T09:14:22;3.15;;;0.22;;
76320;SDS011;65132;52.088;5.402;2023-04-25T09:19:25;4.22;;;0.22;;
76320;SDS011;65132;52.088;5.402;2023-04-25T09:22:06;4.35;;;0.50;;
76320;SDS011;65132;52.088;5.402;2023-04-25T09:32:21;8.15;;;0.80;;
76320;SDS011;65132;52.088;5.402;2023-04-25T09:40:06;5.50;;;0.80;;
76320;SDS011;65132;52.088;5.402;2023-04-25T09:42:32;2.95;;;0.52;;
76320;SDS011;65132;52.088;5.402;2023-04-25T09:44:59;2.42;;;0.65;;
76320;SDS011;65132;52.088;5.402;2023-04-25T09:47:26;2.45;;;0.60;;
76320;SDS011;65132;52.088;5.402;2023-04-25T09:49:53;2.75;;;0.60;;
76320;SDS011;65132;52.088;5.402;2023-04-25T09:52:27;3.33;;;0.80;;
76320;SDS011;65132;52.088;5.402;2023-04-25T09:54:53;3.50;;;0.60;;
76320;SDS011;65132;52.088;5.402;2023-04-25T09:57:23;3.53;;;0.45;;
76320;SDS011;65132;52.088;5.402;2023-04-25T09:59:54;3.28;;;0.47;;
76320;SDS011;65132;52.088;5.402;2023-04-25T10:02:21;1.75;;;0.22;;
76320;SDS011;65132;52.088;5.402;2023-04-25T10:04:54;2.67;;;0.45;;
76320;SDS011;65132;52.088;5.402;2023-04-25T10:09:59;6.10;;;0.68;;
76320;SDS011;65132;52.088;5.402;2023-04-25T10:12:26;3.10;;;0.30;;
76320;SDS011;65132;52.088;5.402;2023-04-25T10:14:52;3.78;;;0.82;;
76320;SDS011;65132;52.088;5.402;2023-04-25T10:17:20;1.65;;;0.40;;
76320;SDS011;65132;52.088;5.402;2023-04-25T10:19:49;2.53;;;0.40;;
76320;SDS011;65132;52.088;5.402;2023-04-25T10:24:43;4.18;;;0.60;;
76320;SDS011;65132;52.088;5.402;2023-04-25T10:27:10;3.03;;;0.50;;
76320;SDS011;65132;52.088;5.402;2023-04-25T10:29:39;3.10;;;0.70;;
76320;SDS011;65132;52.088;5.402;2023-04-25T10:32:07;2.22;;;0.60;;
76320;SDS011;65132;52.088;5.402;2023-04-25T10:34:40;3.38;;;0.40;;
76320;SDS011;65132;52.088;5.402;2023-04-25T10:37:09;1.58;;;0.20;;
76320;SDS011;65132;52.088;5.402;2023-04-25T10:39:37;4.28;;;0.60;;
76320;SDS011;65132;52.088;5.402;2023-04-25T10:42:04;2.28;;;0.28;;
76320;SDS011;65132;52.088;5.402;2023-04-25T10:44:32;3.97;;;0.98;;
76320;SDS011;65132;52.088;5.402;2023-04-25T10:47:01;5.15;;;1.00;;
76320;SDS011;65132;52.088;5.402;2023-04-25T10:49:35;3.20;;;0.50;;
76320;SDS011;65132;52.088;5.402;2023-04-25T10:52:11;3.17;;;0.50;;
76320;SDS011;65132;52.088;5.402;2023-04-25T10:54:57;1.85;;;0.60;;
76320;SDS011;65132;52.088;5.402;2023-04-25T10:57:30;2.53;;;0.50;;
76320;SDS011;65132;52.088;5.402;2023-04-25T11:02:28;2.42;;;0.60;;
76320;SDS011;65132;52.088;5.402;2023-04-25T11:04:58;2.30;;;0.50;;
76320;SDS011;65132;52.088;5.402;2023-04-25T11:07:45;6.15;;;0.52;;
76320;SDS011;65132;52.088;5.402;2023-04-25T11:10:28;2.67;;;0.43;;
76320;SDS011;65132;52.088;5.402;2023-04-25T11:12:55;1.77;;;0.40;;
76320;SDS011;65132;52.088;5.402;2023-04-25T11:15:24;1.85;;;0.30;;
76320;SDS011;65132;52.088;5.402;2023-04-25T11:17:51;4.32;;;0.20;;
76320;SDS011;65132;52.088;5.402;2023-04-25T11:20:21;4.20;;;0.90;;
76320;SDS011;65132;52.088;5.402;2023-04-25T11:22:48;3.53;;;0.55;;
76320;SDS011;65132;52.088;5.402;2023-04-25T11:25:24;2.92;;;0.55;;
76320;SDS011;65132;52.088;5.402;2023-04-25T11:28:02;6.85;;;0.80;;
76320;SDS011;65132;52.088;5.402;2023-04-25T11:30:29;3.80;;;0.68;;
76320;SDS011;65132;52.088;5.402;2023-04-25T11:32:56;5.47;;;0.30;;
76320;SDS011;65132;52.088;5.402;2023-04-25T11:35:22;4.28;;;0.68;;
76320;SDS011;65132;52.088;5.402;2023-04-25T11:37:50;3.58;;;0.55;;
76320;SDS011;65132;52.088;5.402;2023-04-25T11:40:21;2.40;;;0.55;;
76320;SDS011;65132;52.088;5.402;2023-04-25T11:42:52;3.17;;;0.70;;
76320;SDS011;65132;52.088;5.402;2023-04-25T11:45:20;3.22;;;0.70;;
76320;SDS011;65132;52.088;5.402;2023-04-25T11:47:48;1.58;;;0.47;;
76320;SDS011;65132;52.088;5.402;2023-04-25T11:50:15;3.65;;;0.73;;
76320;SDS011;65132;52.088;5.402;2023-04-25T11:52:48;3.13;;;0.70;;
76320;SDS011;65132;52.088;5.402;2023-04-25T11:55:18;5.22;;;0.70;;
76320;SDS011;65132;52.088;5.402;2023-04-25T11:57:45;0.82;;;0.30;;
76320;SDS011;65132;52.088;5.402;2023-04-25T12:00:13;3.83;;;0.60;;
76320;SDS011;65132;52.088;5.402;2023-04-25T12:02:44;2.15;;;0.30;;
76320;SDS011;65132;52.088;5.402;2023-04-25T12:05:11;2.17;;;0.50;;
76320;SDS011;65132;52.088;5.402;2023-04-25T12:07:56;2.08;;;0.70;;
76320;SDS011;65132;52.088;5.402;2023-04-25T12:10:24;1.77;;;0.50;;
76320;SDS011;65132;52.088;5.402;2023-04-25T12:12:53;4.25;;;0.95;;
76320;SDS011;65132;52.088;5.402;2023-04-25T12:15:24;2.95;;;0.30;;
76320;SDS011;65132;52.088;5.402;2023-04-25T12:17:51;2.03;;;0.60;;
76320;SDS011;65132;52.088;5.402;2023-04-25T12:20:19;2.95;;;0.55;;
76320;SDS011;65132;52.088;5.402;2023-04-25T12:22:46;2.47;;;0.60;;
76320;SDS011;65132;52.088;5.402;2023-04-25T12:25:13;3.28;;;0.77;;
76320;SDS011;65132;52.088;5.402;2023-04-25T12:27:40;1.73;;;0.25;;
76320;SDS011;65132;52.088;5.402;2023-04-25T12:30:07;4.43;;;0.40;;
76320;SDS011;65132;52.088;5.402;2023-04-25T12:32:35;1.73;;;0.40;;
76320;SDS011;65132;52.088;5.402;2023-04-25T12:35:01;1.02;;;0.20;;
76320;SDS011;65132;52.088;5.402;2023-04-25T12:37:30;1.85;;;0.77;;
76320;SDS011;65132;52.088;5.402;2023-04-25T12:39:56;3.33;;;0.40;;
76320;SDS011;65132;52.088;5.402;2023-04-25T12:42:24;2.15;;;0.68;;
76320;SDS011;65132;52.088;5.402;2023-04-25T12:44:50;3.28;;;0.63;;
76320;SDS011;65132;52.088;5.402;2023-04-25T12:57:57;3.10;;;1.08;;
76320;SDS011;65132;52.088;5.402;2023-04-25T13:08:30;2.10;;;0.50;;
76320;SDS011;65132;52.088;5.402;2023-04-25T13:10:57;3.35;;;0.43;;
76320;SDS011;65132;52.088;5.402;2023-04-25T13:13:26;3.22;;;0.80;;
76320;SDS011;65132;52.088;5.402;2023-04-25T13:15:52;2.35;;;0.43;;
76320;SDS011;65132;52.088;5.402;2023-04-25T13:18:19;2.95;;;0.57;;
76320;SDS011;65132;52.088;5.402;2023-04-25T13:20:49;2.50;;;0.40;;
76320;SDS011;65132;52.088;5.402;2023-04-25T13:23:15;2.28;;;0.47;;
76320;SDS011;65132;52.088;5.402;2023-04-25T13:25:42;2.90;;;0.73;;
76320;SDS011;65132;52.088;5.402;2023-04-25T13:28:08;4.38;;;0.50;;
76320;SDS011;65132;52.088;5.402;2023-04-25T13:30:35;3.85;;;1.02;;
76320;SDS011;65132;52.088;5.402;2023-04-25T13:33:25;2.35;;;0.40;;
76320;SDS011;65132;52.088;5.402;2023-04-25T13:35:52;3.58;;;0.55;;
76320;SDS011;65132;52.088;5.402;2023-04-25T13:38:18;2.60;;;0.40;;
76320;SDS011;65132;52.088;5.402;2023-04-25T13:40:45;1.42;;;0.35;;
76320;SDS011;65132;52.088;5.402;2023-04-25T13:43:14;2.28;;;0.60;;
76320;SDS011;65132;52.088;5.402;2023-04-25T13:45:54;1.90;;;0.22;;
76320;SDS011;65132;52.088;5.402;2023-04-25T13:48:20;4.28;;;0.60;;
76320;SDS011;65132;52.088;5.402;2023-04-25T13:50:49;1.65;;;0.32;;
76320;SDS011;65132;52.088;5.402;2023-04-25T13:53:15;3.13;;;0.55;;
76320;SDS011;65132;52.088;5.402;2023-04-25T13:55:46;3.47;;;0.40;;
76320;SDS011;65132;52.088;5.402;2023-04-25T13:58:13;4.65;;;0.50;;
76320;SDS011;65132;52.088;5.402;2023-04-25T14:00:39;2.72;;;0.30;;
76320;SDS011;65132;52.088;5.402;2023-04-25T14:03:10;2.90;;;1.00;;
76320;SDS011;65132;52.088;5.402;2023-04-25T14:05:42;2.72;;;0.95;;
76320;SDS011;65132;52.088;5.402;2023-04-25T14:08:09;3.00;;;0.57;;
76320;SDS011;65132;52.088;5.402;2023-04-25T14:10:35;5.78;;;0.80;;
76320;SDS011;65132;52.088;5.402;2023-04-25T14:13:04;2.58;;;0.50;;
76320;SDS011;65132;52.088;5.402;2023-04-25T14:18:12;5.38;;;0.95;;
76320;SDS011;65132;52.088;5.402;2023-04-25T14:20:53;4.28;;;0.40;;
76320;SDS011;65132;52.088;5.402;2023-04-25T14:26:03;2.88;;;0.50;;
76320;SDS011;65132;52.088;5.402;2023-04-25T14:28:29;3.15;;;0.80;;
76320;SDS011;65132;52.088;5.402;2023-04-25T14:30:56;4.35;;;0.60;;
76320;SDS011;65132;52.088;5.402;2023-04-25T14:33:24;1.85;;;0.30;;
76320;SDS011;65132;52.088;5.402;2023-04-25T14:35:50;2.08;;;0.50;;
76320;SDS011;65132;52.088;5.402;2023-04-25T14:38:16;2.10;;;0.70;;
76320;SDS011;65132;52.088;5.402;2023-04-25T14:43:21;1.92;;;0.60;;
76320;SDS011;65132;52.088;5.402;2023-04-25T14:45:47;3.60;;;0.30;;
76320;SDS011;65132;52.088;5.402;2023-04-25T14:48:15;4.03;;;0.38;;
76320;SDS011;65132;52.088;5.402;2023-04-25T14:50:41;3.92;;;0.22;;
76320;SDS011;65132;52.088;5.402;2023-04-25T14:53:08;6.20;;;0.80;;
76320;SDS011;65132;52.088;5.402;2023-04-25T14:55:34;2.67;;;0.60;;
76320;SDS011;65132;52.088;5.402;2023-04-25T14:58:01;2.00;;;0.90;;
76320;SDS011;65132;52.088;5.402;2023-04-25T15:00:27;3.35;;;0.88;;
76320;SDS011;65132;52.088;5.402;2023-04-25T15:02:56;2.40;;;0.50;;
76320;SDS011;65132;52.088;5.402;2023-04-25T15:05:23;3.78;;;0.60;;
76320;SDS011;65132;52.088;5.402;2023-04-25T15:07:49;5.55;;;0.77;;
76320;SDS011;65132;52.088;5.402;2023-04-25T15:10:16;2.88;;;1.00;;
76320;SDS011;65132;52.088;5.402;2023-04-25T15:12:44;2.55;;;0.35;;
76320;SDS011;65132;52.088;5.402;2023-04-25T15:15:13;2.42;;;0.93;;
76320;SDS011;65132;52.088;5.402;2023-04-25T15:17:50;1.92;;;0.60;;
76320;SDS011;65132;52.088;5.402;2023-04-25T15:20:24;2.13;;;0.50;;
76320;SDS011;65132;52.088;5.402;2023-04-25T15:22:50;2.30;;;0.50;;
76320;SDS011;65132;52.088;5.402;2023-04-25T15:25:19;1.80;;;0.32;;
76320;SDS011;65132;52.088;5.402;2023-04-25T15:27:45;2.72;;;0.80;;
76320;SDS011;65132;52.088;5.402;2023-04-25T15:30:14;1.50;;;0.50;;
76320;SDS011;65132;52.088;5.402;2023-04-25T15:32:40;2.75;;;0.50;;
76320;SDS011;65132;52.088;5.402;2023-04-25T15:35:10;4.78;;;0.50;;
76320;SDS011;65132;52.088;5.402;2023-04-25T15:37:39;7.50;;;1.20;;
76320;SDS011;65132;52.088;5.402;2023-04-25T15:40:08;1.77;;;0.60;;
76320;SDS011;65132;52.088;5.402;2023-04-25T15:42:35;3.65;;;0.80;;
76320;SDS011;65132;52.088;5.402;2023-04-25T15:45:06;4.80;;;0.55;;
76320;SDS011;65132;52.088;5.402;2023-04-25T15:47:36;2.35;;;0.32;;
76320;SDS011;65132;52.088;5.402;2023-04-25T15:50:05;5.40;;;0.40;;
76320;SDS011;65132;52.088;5.402;2023-04-25T15:52:35;3.47;;;0.47;;
76320;SDS011;65132;52.088;5.402;2023-04-25T15:55:02;5.13;;;0.50;;
76320;SDS011;65132;52.088;5.402;2023-04-25T15:57:28;4.20;;;0.80;;